SEQMSKCG

Guest
Details From SEQM - Quito - Mariscal Sucre Intl
To SKCG - RAFAEL NUNEZ
Flight Number -
Tags generated
Created
Modified
Stats Distance 675 nm / 1,251 km
Max Altitude 35,000 ft / 10,668 m
Waypoints 8
Social Downloads 0
Likes 0
Share VATSIM

Download

Looking for another format? Having issues loading an existing format? Contact us
Advertisement - Login to hide

Notes

Basic altitude profile: - Ascent Rate: 2500ft/min - Ascent Speed: 250kts - Cruise Altitude: 34000ft - Cruise Speed: 420kts - Descent Rate: 1500ft/min - Descent Speed: 250kts Options: - Use NATs: yes - Use PACOTS: yes - Use low airways: no - Use high airways: yes

Route

SEQM BOKAN UQ113 ULQ UG438 CTG SKCG

ID Type Via Altitude Latitude Longitude Leg Dist Tot Dist Heading (true) Name
O SEQM APT - 0 ft / 0 m -0.12409˚ -78.35438˚ - 0 nm - Quito - Mariscal Sucre Intl
BOKAN FIX - 21,400 ft / 6,523 m 0.80833˚ -77.88167˚ 62 nm 62 nm 27° / 27° -
ULQ VOR UQ113 (AWY-HI) 35,000 ft / 10,668 m 4.09158˚ -76.22328˚ 220 nm 283 nm 27° / 27° TULUA VOR-DME
PEI VOR UG438 (AWY-HI) 35,000 ft / 10,668 m 4.78297˚ -75.83578˚ 47 nm 331 nm 29° / 29° PEREIRA VOR-DME
RNG VOR UG438 (AWY-HI) 35,000 ft / 10,668 m 5.98056˚ -75.41833˚ 76 nm 407 nm 19° / 19° RIONEGRO VOR-DME
BUTAL FIX UG438 (AWY-HI) 32,300 ft / 9,845 m 7.85361˚ -75.45722˚ 112 nm 519 nm 359° / 359° -
CTG VOR UG438 (AWY-HI) 24,500 ft / 7,468 m 10.20836˚ -75.50608˚ 141 nm 661 nm 359° / 359° CARTAGENA VOR-DME
O SKCG APT - 0 ft / 0 m 10.44238˚ -75.51296˚ 14 nm 675 nm 358° / 358° RAFAEL NUNEZ

Altitude Profile

Advertisement - Login to hide

Weather


0- 5 10 15 20 25 30 35+ Temperature / ° C

Clouds and Precipitation
Forecast for 2017-12-14 18:00 UTC. Updated 11 minutes ago

Ground ~20,000 ft ~40,000 ft Winds

SEQM

Details ICAO SEQM
Name Quito - Mariscal Sucre Intl
Region Equador
Timezone America/Guayaquil (UTC-5.0)
Stats Elevation 7,841 ft / 2,390 m (AMSL)
Location -0.124089° -78.354381°
Runways 1
Magnetic Variation 3.594° W

METAR

SEQM 141700Z 30004KT 9999 FEW040 24/M06 Q1023 NOSIG RMK A3024

Decode

TAF

Not found

Departure Runways

ID Width Length Bearing (true) Bearing (mag) Surface Threshold Offset Overrun Length
18 171 ft / 52 m 13,524 ft / 4,122 m 177.61° 181.20° Asphalt 0 ft / 0 m 177 ft / 54 m
36 171 ft / 52 m 13,524 ft / 4,122 m 357.61° 1.20° Asphalt 0 ft / 0 m 184 ft / 56 m

SKCG

Details ICAO SKCG (CTG)
Name RAFAEL NUNEZ
Region Colombia
Timezone America/Bogota (UTC-5.0)
Stats Elevation 4 ft / 1 m (AMSL)
Location 10.442379° -75.512961°
Runways 1
Magnetic Variation 7.204° W

METAR

SKCG 141700Z 35004KT 9999 FEW013 32/23 A2984

Decode

TAF

Not found

Destination Runways

ID Width Length Bearing (true) Bearing (mag) Surface Threshold Offset Overrun Length
01 148 ft / 45 m 8,584 ft / 2,616 m 2.31° 9.51° Asphalt 0 ft / 0 m 180 ft / 55 m
19 148 ft / 45 m 8,584 ft / 2,616 m 182.31° 189.51° Asphalt 190 ft / 58 m 0 ft / 0 m